Terrell, TX

7:34 AM CST on January 25, 2015 (GMT -0600)
Layden Farms Talty, TX | Change Station
CLOSE
Current Station
Personal Weather Station
Location: Forney, TX
Elevation: 502 ft
Nearby Weather Stations

Elev 502 ft 32.70 °N, 96.40 °W | Updated 8 seconds ago

Clear
Clear
43.8 °F
Feels Like 41 °F
N
5.0
Wind Variable Wind from NW
Gusts 0.0 mph

Today
High -- | Low -- °F
--% Chance of Precip.
Yesterday
High -- | Low -- °F
Precip. -- in
7:24 AM 5:51 PM
Waxing Crescent, 32% visible
Pressure 29.95 in
Visibility 10.0 miles
Clouds Clear
Windchill 41 °F
Dew Point 38 °F
Humidity 79%
Rainfall 0.00 in
Snow Depth Not available.
UV 0 out of 12
Pollen 8.20 out of 12
Air Quality Not available.
Flu Activity Not available.
METAR KTRL 251253Z AUTO 00000KT 10SM CLR 04/01 A2995 RMK AO2 SLP140 T00440011

More Conditions Fewer Conditions

Pressure 29.95 in
Visibility 10.0 miles
Clouds Clear
Windchill 41 °F
Dew Point 38 °F
Humidity 79%
Rainfall 0.00 in
Snow Depth Not available.
UV 0 out of 12
Pollen 8.20 out of 12
Air Quality Not available.
Flu Activity Not available.
METAR KTRL 251253Z AUTO 00000KT 10SM CLR 04/01 A2995 RMK AO2 SLP140 T00440011

More Conditions Fewer Conditions

10-Day Weather Forecast

Almanac

Astronomy

Jan. 25, 2015 Rise Set
Actual Time
Civil Twilight
Nautical Twilight
Astronomical Twilight
Moon
Length of Visible Light
Length of Day
Tomorrow will be .
, % of the Moon is Illuminated

Today's Extremes

State Highs State Lows

Community

WunderPhotos

Upload Photos

1,789,883 photos uploaded!

WunderBlogs® & News

Nearby

Air Quality

  Air Quality AQ Index Pollutant
Not available.

Snow Depth

Station Depth Elevation

Earthquake Activity

City Distance Mag. Time & Date
Minimum magnitude displayed is 2.5.

Coastal Water Temperatures

Place Temperature

Nearby Weather Stations